sensor_id;sensor_type;location;lat;lon;timestamp;P1;durP1;ratioP1;P2;durP2;ratioP2
10586;SDS011;5341;47.606;7.576;2022-12-07T00:01:33;13.35;;;8.90;;
10586;SDS011;5341;47.606;7.576;2022-12-07T00:04:04;20.40;;;9.80;;
10586;SDS011;5341;47.606;7.576;2022-12-07T00:06:33;10.68;;;9.05;;
10586;SDS011;5341;47.606;7.576;2022-12-07T00:09:03;9.98;;;8.50;;
10586;SDS011;5341;47.606;7.576;2022-12-07T00:11:32;10.30;;;8.40;;
10586;SDS011;5341;47.606;7.576;2022-12-07T00:14:02;10.82;;;9.25;;
10586;SDS011;5341;47.606;7.576;2022-12-07T00:16:33;11.18;;;8.80;;
10586;SDS011;5341;47.606;7.576;2022-12-07T00:19:02;10.25;;;8.80;;
10586;SDS011;5341;47.606;7.576;2022-12-07T00:21:33;9.63;;;8.45;;
10586;SDS011;5341;47.606;7.576;2022-12-07T00:24:02;10.93;;;8.98;;
10586;SDS011;5341;47.606;7.576;2022-12-07T00:26:32;10.95;;;9.15;;
10586;SDS011;5341;47.606;7.576;2022-12-07T00:29:05;10.38;;;9.02;;
10586;SDS011;5341;47.606;7.576;2022-12-07T00:31:34;10.82;;;9.10;;
10586;SDS011;5341;47.606;7.576;2022-12-07T00:34:04;11.65;;;9.73;;
10586;SDS011;5341;47.606;7.576;2022-12-07T00:36:32;10.35;;;9.25;;
10586;SDS011;5341;47.606;7.576;2022-12-07T00:39:00;12.63;;;9.55;;
10586;SDS011;5341;47.606;7.576;2022-12-07T00:41:28;11.25;;;9.07;;
10586;SDS011;5341;47.606;7.576;2022-12-07T00:43:57;11.30;;;9.50;;
10586;SDS011;5341;47.606;7.576;2022-12-07T00:46:27;11.88;;;9.20;;
10586;SDS011;5341;47.606;7.576;2022-12-07T00:48:55;11.68;;;9.75;;
10586;SDS011;5341;47.606;7.576;2022-12-07T00:51:24;12.15;;;9.32;;
10586;SDS011;5341;47.606;7.576;2022-12-07T00:53:52;10.73;;;9.63;;
10586;SDS011;5341;47.606;7.576;2022-12-07T00:56:22;11.50;;;9.80;;
10586;SDS011;5341;47.606;7.576;2022-12-07T00:58:51;10.68;;;9.27;;
10586;SDS011;5341;47.606;7.576;2022-12-07T01:01:19;10.88;;;9.30;;
10586;SDS011;5341;47.606;7.576;2022-12-07T01:03:49;10.60;;;8.95;;
10586;SDS011;5341;47.606;7.576;2022-12-07T01:06:17;10.45;;;9.35;;
10586;SDS011;5341;47.606;7.576;2022-12-07T01:08:46;10.57;;;9.07;;
10586;SDS011;5341;47.606;7.576;2022-12-07T01:11:15;13.02;;;9.50;;
10586;SDS011;5341;47.606;7.576;2022-12-07T01:13:44;12.88;;;9.55;;
10586;SDS011;5341;47.606;7.576;2022-12-07T01:16:13;13.25;;;9.20;;
10586;SDS011;5341;47.606;7.576;2022-12-07T01:18:45;11.10;;;9.40;;
10586;SDS011;5341;47.606;7.576;2022-12-07T01:21:15;11.18;;;9.75;;
10586;SDS011;5341;47.606;7.576;2022-12-07T01:23:46;12.05;;;10.10;;
10586;SDS011;5341;47.606;7.576;2022-12-07T01:26:15;11.48;;;10.15;;
10586;SDS011;5341;47.606;7.576;2022-12-07T01:28:44;12.60;;;10.45;;
10586;SDS011;5341;47.606;7.576;2022-12-07T01:31:13;13.88;;;10.68;;
10586;SDS011;5341;47.606;7.576;2022-12-07T01:33:42;12.68;;;10.60;;
10586;SDS011;5341;47.606;7.576;2022-12-07T01:36:13;12.48;;;10.25;;
10586;SDS011;5341;47.606;7.576;2022-12-07T01:38:43;14.27;;;12.00;;
10586;SDS011;5341;47.606;7.576;2022-12-07T01:41:12;16.25;;;11.52;;
10586;SDS011;5341;47.606;7.576;2022-12-07T01:44:06;13.65;;;11.20;;
10586;SDS011;5341;47.606;7.576;2022-12-07T01:46:47;15.50;;;12.20;;
10586;SDS011;5341;47.606;7.576;2022-12-07T01:49:17;13.63;;;11.50;;
10586;SDS011;5341;47.606;7.576;2022-12-07T01:51:50;12.85;;;10.32;;
10586;SDS011;5341;47.606;7.576;2022-12-07T01:54:21;13.50;;;10.43;;
10586;SDS011;5341;47.606;7.576;2022-12-07T01:56:50;12.85;;;10.77;;
10586;SDS011;5341;47.606;7.576;2022-12-07T01:59:21;12.73;;;11.02;;
10586;SDS011;5341;47.606;7.576;2022-12-07T02:01:52;12.85;;;10.63;;
10586;SDS011;5341;47.606;7.576;2022-12-07T02:04:21;13.75;;;10.90;;
10586;SDS011;5341;47.606;7.576;2022-12-07T02:06:51;14.00;;;11.32;;
10586;SDS011;5341;47.606;7.576;2022-12-07T02:09:20;15.48;;;11.85;;
10586;SDS011;5341;47.606;7.576;2022-12-07T02:11:48;12.48;;;11.02;;
10586;SDS011;5341;47.606;7.576;2022-12-07T02:14:17;15.48;;;12.10;;
10586;SDS011;5341;47.606;7.576;2022-12-07T02:16:51;13.48;;;10.95;;
10586;SDS011;5341;47.606;7.576;2022-12-07T02:19:42;14.70;;;11.35;;
10586;SDS011;5341;47.606;7.576;2022-12-07T02:26:07;16.67;;;11.70;;
10586;SDS011;5341;47.606;7.576;2022-12-07T02:29:04;16.00;;;12.48;;
10586;SDS011;5341;47.606;7.576;2022-12-07T02:31:41;16.25;;;12.95;;
10586;SDS011;5341;47.606;7.576;2022-12-07T02:34:16;13.82;;;12.18;;
10586;SDS011;5341;47.606;7.576;2022-12-07T02:36:51;17.65;;;12.65;;
10586;SDS011;5341;47.606;7.576;2022-12-07T02:39:23;16.48;;;13.73;;
10586;SDS011;5341;47.606;7.576;2022-12-07T02:41:59;16.98;;;12.70;;
10586;SDS011;5341;47.606;7.576;2022-12-07T02:44:36;18.02;;;13.57;;
10586;SDS011;5341;47.606;7.576;2022-12-07T02:47:06;16.23;;;12.55;;
10586;SDS011;5341;47.606;7.576;2022-12-07T02:49:37;15.45;;;12.65;;
10586;SDS011;5341;47.606;7.576;2022-12-07T02:52:06;16.88;;;12.55;;
10586;SDS011;5341;47.606;7.576;2022-12-07T02:54:34;15.82;;;13.23;;
10586;SDS011;5341;47.606;7.576;2022-12-07T02:57:03;15.38;;;13.27;;
10586;SDS011;5341;47.606;7.576;2022-12-07T02:59:43;16.13;;;12.98;;
10586;SDS011;5341;47.606;7.576;2022-12-07T03:02:27;15.20;;;12.85;;
10586;SDS011;5341;47.606;7.576;2022-12-07T03:05:05;18.00;;;13.05;;
10586;SDS011;5341;47.606;7.576;2022-12-07T03:07:45;16.38;;;13.68;;
10586;SDS011;5341;47.606;7.576;2022-12-07T03:10:22;14.55;;;12.60;;
10586;SDS011;5341;47.606;7.576;2022-12-07T03:12:57;15.32;;;12.15;;
10586;SDS011;5341;47.606;7.576;2022-12-07T03:15:33;16.52;;;12.27;;
10586;SDS011;5341;47.606;7.576;2022-12-07T03:18:06;15.88;;;13.20;;
10586;SDS011;5341;47.606;7.576;2022-12-07T03:20:37;16.15;;;12.73;;
10586;SDS011;5341;47.606;7.576;2022-12-07T03:23:07;16.77;;;12.93;;
10586;SDS011;5341;47.606;7.576;2022-12-07T03:25:38;16.40;;;13.07;;
10586;SDS011;5341;47.606;7.576;2022-12-07T03:28:07;16.70;;;13.65;;
10586;SDS011;5341;47.606;7.576;2022-12-07T03:30:39;14.43;;;12.25;;
10586;SDS011;5341;47.606;7.576;2022-12-07T03:33:12;14.52;;;12.45;;
10586;SDS011;5341;47.606;7.576;2022-12-07T03:35:45;16.23;;;13.35;;
10586;SDS011;5341;47.606;7.576;2022-12-07T03:38:18;14.02;;;12.02;;
10586;SDS011;5341;47.606;7.576;2022-12-07T03:40:49;15.52;;;13.07;;
10586;SDS011;5341;47.606;7.576;2022-12-07T03:43:19;16.48;;;12.90;;
10586;SDS011;5341;47.606;7.576;2022-12-07T03:45:55;15.45;;;12.70;;
10586;SDS011;5341;47.606;7.576;2022-12-07T03:48:32;15.80;;;13.05;;
10586;SDS011;5341;47.606;7.576;2022-12-07T03:51:06;16.70;;;12.77;;
10586;SDS011;5341;47.606;7.576;2022-12-07T03:53:41;19.27;;;13.43;;
10586;SDS011;5341;47.606;7.576;2022-12-07T03:56:12;16.98;;;13.13;;
10586;SDS011;5341;47.606;7.576;2022-12-07T03:58:41;17.05;;;13.52;;
10586;SDS011;5341;47.606;7.576;2022-12-07T04:01:12;15.60;;;12.43;;
10586;SDS011;5341;47.606;7.576;2022-12-07T04:03:39;20.35;;;14.43;;
10586;SDS011;5341;47.606;7.576;2022-12-07T04:06:07;16.58;;;14.35;;
10586;SDS011;5341;47.606;7.576;2022-12-07T04:08:35;15.82;;;12.98;;
10586;SDS011;5341;47.606;7.576;2022-12-07T04:11:02;16.80;;;13.38;;
10586;SDS011;5341;47.606;7.576;2022-12-07T04:13:30;16.48;;;12.50;;
10586;SDS011;5341;47.606;7.576;2022-12-07T04:16:19;18.77;;;12.85;;
10586;SDS011;5341;47.606;7.576;2022-12-07T04:18:47;15.80;;;11.55;;
10586;SDS011;5341;47.606;7.576;2022-12-07T04:21:15;15.52;;;11.45;;
10586;SDS011;5341;47.606;7.576;2022-12-07T04:23:42;12.57;;;10.35;;
10586;SDS011;5341;47.606;7.576;2022-12-07T04:26:10;11.95;;;10.07;;
10586;SDS011;5341;47.606;7.576;2022-12-07T04:28:38;11.95;;;9.82;;
10586;SDS011;5341;47.606;7.576;2022-12-07T04:31:05;13.05;;;9.52;;
10586;SDS011;5341;47.606;7.576;2022-12-07T04:33:35;12.70;;;9.40;;
10586;SDS011;5341;47.606;7.576;2022-12-07T04:36:03;10.20;;;8.30;;
10586;SDS011;5341;47.606;7.576;2022-12-07T04:38:31;9.20;;;7.82;;
10586;SDS011;5341;47.606;7.576;2022-12-07T04:40:59;8.40;;;7.18;;
10586;SDS011;5341;47.606;7.576;2022-12-07T04:43:32;8.63;;;7.57;;
10586;SDS011;5341;47.606;7.576;2022-12-07T04:46:00;8.60;;;6.93;;
10586;SDS011;5341;47.606;7.576;2022-12-07T04:48:28;8.73;;;6.35;;
10586;SDS011;5341;47.606;7.576;2022-12-07T04:50:57;8.13;;;6.13;;
10586;SDS011;5341;47.606;7.576;2022-12-07T04:53:25;7.32;;;6.20;;
10586;SDS011;5341;47.606;7.576;2022-12-07T04:55:52;6.70;;;5.75;;
10586;SDS011;5341;47.606;7.576;2022-12-07T04:58:20;7.18;;;5.57;;
10586;SDS011;5341;47.606;7.576;2022-12-07T05:00:48;7.18;;;5.53;;
10586;SDS011;5341;47.606;7.576;2022-12-07T05:03:15;6.75;;;5.32;;
10586;SDS011;5341;47.606;7.576;2022-12-07T05:05:43;6.93;;;5.38;;
10586;SDS011;5341;47.606;7.576;2022-12-07T05:08:12;8.13;;;4.80;;
10586;SDS011;5341;47.606;7.576;2022-12-07T05:10:40;6.13;;;5.32;;
10586;SDS011;5341;47.606;7.576;2022-12-07T05:13:08;6.72;;;4.95;;
10586;SDS011;5341;47.606;7.576;2022-12-07T05:15:35;5.60;;;5.00;;
10586;SDS011;5341;47.606;7.576;2022-12-07T05:18:03;6.60;;;4.53;;
10586;SDS011;5341;47.606;7.576;2022-12-07T05:20:31;6.97;;;5.25;;
10586;SDS011;5341;47.606;7.576;2022-12-07T05:22:58;6.45;;;4.63;;
10586;SDS011;5341;47.606;7.576;2022-12-07T05:25:27;7.05;;;4.90;;
10586;SDS011;5341;47.606;7.576;2022-12-07T05:27:55;6.40;;;5.55;;
10586;SDS011;5341;47.606;7.576;2022-12-07T05:30:23;6.72;;;5.65;;
10586;SDS011;5341;47.606;7.576;2022-12-07T05:32:52;6.57;;;5.63;;
10586;SDS011;5341;47.606;7.576;2022-12-07T05:35:20;8.30;;;6.22;;
10586;SDS011;5341;47.606;7.576;2022-12-07T05:37:48;6.95;;;6.07;;
10586;SDS011;5341;47.606;7.576;2022-12-07T05:40:16;7.05;;;5.93;;
10586;SDS011;5341;47.606;7.576;2022-12-07T05:42:46;9.32;;;6.72;;
10586;SDS011;5341;47.606;7.576;2022-12-07T05:45:13;7.72;;;6.30;;
10586;SDS011;5341;47.606;7.576;2022-12-07T05:47:41;8.43;;;6.88;;
10586;SDS011;5341;47.606;7.576;2022-12-07T05:50:09;9.88;;;7.32;;
10586;SDS011;5341;47.606;7.576;2022-12-07T05:52:36;8.75;;;6.90;;
10586;SDS011;5341;47.606;7.576;2022-12-07T05:55:04;8.10;;;7.30;;
10586;SDS011;5341;47.606;7.576;2022-12-07T05:57:33;9.75;;;7.57;;
10586;SDS011;5341;47.606;7.576;2022-12-07T06:00:02;11.82;;;8.57;;
10586;SDS011;5341;47.606;7.576;2022-12-07T06:02:37;10.13;;;8.43;;
10586;SDS011;5341;47.606;7.576;2022-12-07T06:05:05;12.38;;;8.10;;
10586;SDS011;5341;47.606;7.576;2022-12-07T06:07:34;11.27;;;8.07;;
10586;SDS011;5341;47.606;7.576;2022-12-07T06:10:01;13.85;;;8.50;;
10586;SDS011;5341;47.606;7.576;2022-12-07T06:12:30;11.52;;;9.13;;
10586;SDS011;5341;47.606;7.576;2022-12-07T06:14:59;12.30;;;8.93;;
10586;SDS011;5341;47.606;7.576;2022-12-07T06:17:29;11.07;;;9.27;;
10586;SDS011;5341;47.606;7.576;2022-12-07T06:19:57;12.23;;;9.75;;
10586;SDS011;5341;47.606;7.576;2022-12-07T06:22:24;11.63;;;9.38;;
10586;SDS011;5341;47.606;7.576;2022-12-07T06:24:53;12.30;;;9.80;;
10586;SDS011;5341;47.606;7.576;2022-12-07T06:27:21;12.40;;;9.57;;
10586;SDS011;5341;47.606;7.576;2022-12-07T06:29:48;11.70;;;9.15;;
10586;SDS011;5341;47.606;7.576;2022-12-07T06:32:17;10.65;;;8.95;;
10586;SDS011;5341;47.606;7.576;2022-12-07T06:34:46;11.98;;;9.88;;
10586;SDS011;5341;47.606;7.576;2022-12-07T06:37:14;11.68;;;9.40;;
10586;SDS011;5341;47.606;7.576;2022-12-07T06:39:42;12.43;;;9.65;;
10586;SDS011;5341;47.606;7.576;2022-12-07T06:42:09;14.15;;;10.45;;
10586;SDS011;5341;47.606;7.576;2022-12-07T06:44:37;12.15;;;9.60;;
10586;SDS011;5341;47.606;7.576;2022-12-07T06:47:06;11.90;;;9.30;;
10586;SDS011;5341;47.606;7.576;2022-12-07T06:49:34;12.52;;;9.48;;
10586;SDS011;5341;47.606;7.576;2022-12-07T06:52:04;12.68;;;9.93;;
10586;SDS011;5341;47.606;7.576;2022-12-07T06:54:31;11.20;;;9.13;;
10586;SDS011;5341;47.606;7.576;2022-12-07T06:56:59;15.30;;;10.05;;
10586;SDS011;5341;47.606;7.576;2022-12-07T06:59:26;13.75;;;9.88;;
10586;SDS011;5341;47.606;7.576;2022-12-07T07:01:54;12.23;;;9.20;;
10586;SDS011;5341;47.606;7.576;2022-12-07T07:04:22;12.35;;;9.82;;
10586;SDS011;5341;47.606;7.576;2022-12-07T07:06:50;13.05;;;9.38;;
10586;SDS011;5341;47.606;7.576;2022-12-07T07:09:19;10.18;;;8.57;;
10586;SDS011;5341;47.606;7.576;2022-12-07T07:11:48;11.73;;;9.13;;
10586;SDS011;5341;47.606;7.576;2022-12-07T07:14:16;11.27;;;9.10;;
10586;SDS011;5341;47.606;7.576;2022-12-07T07:16:45;12.32;;;10.02;;
10586;SDS011;5341;47.606;7.576;2022-12-07T07:19:15;13.43;;;9.68;;
10586;SDS011;5341;47.606;7.576;2022-12-07T07:21:43;12.25;;;9.50;;
10586;SDS011;5341;47.606;7.576;2022-12-07T07:24:10;12.55;;;9.40;;
10586;SDS011;5341;47.606;7.576;2022-12-07T07:26:41;11.70;;;9.63;;
10586;SDS011;5341;47.606;7.576;2022-12-07T07:29:12;14.00;;;9.90;;
10586;SDS011;5341;47.606;7.576;2022-12-07T07:31:43;11.88;;;10.18;;
10586;SDS011;5341;47.606;7.576;2022-12-07T07:34:10;12.43;;;10.35;;
10586;SDS011;5341;47.606;7.576;2022-12-07T07:36:38;12.50;;;9.35;;
10586;SDS011;5341;47.606;7.576;2022-12-07T07:39:12;13.80;;;10.23;;
10586;SDS011;5341;47.606;7.576;2022-12-07T07:41:43;11.95;;;9.55;;
10586;SDS011;5341;47.606;7.576;2022-12-07T07:44:13;13.07;;;9.68;;
10586;SDS011;5341;47.606;7.576;2022-12-07T07:46:41;12.70;;;9.35;;
10586;SDS011;5341;47.606;7.576;2022-12-07T07:49:10;11.73;;;9.43;;
10586;SDS011;5341;47.606;7.576;2022-12-07T07:51:39;12.55;;;9.55;;
10586;SDS011;5341;47.606;7.576;2022-12-07T07:54:08;12.00;;;9.57;;
10586;SDS011;5341;47.606;7.576;2022-12-07T07:56:39;12.63;;;9.95;;
10586;SDS011;5341;47.606;7.576;2022-12-07T07:59:09;10.57;;;9.07;;
10586;SDS011;5341;47.606;7.576;2022-12-07T08:01:36;10.85;;;9.20;;
10586;SDS011;5341;47.606;7.576;2022-12-07T08:04:07;11.30;;;9.73;;
10586;SDS011;5341;47.606;7.576;2022-12-07T08:06:40;12.40;;;10.45;;
10586;SDS011;5341;47.606;7.576;2022-12-07T08:09:08;13.13;;;10.55;;
10586;SDS011;5341;47.606;7.576;2022-12-07T08:11:36;14.73;;;10.48;;
10586;SDS011;5341;47.606;7.576;2022-12-07T08:14:04;13.93;;;11.35;;
10586;SDS011;5341;47.606;7.576;2022-12-07T08:16:33;13.43;;;11.15;;
10586;SDS011;5341;47.606;7.576;2022-12-07T08:19:02;13.32;;;11.55;;
10586;SDS011;5341;47.606;7.576;2022-12-07T08:21:35;14.20;;;11.57;;
10586;SDS011;5341;47.606;7.576;2022-12-07T08:24:03;16.25;;;12.85;;
10586;SDS011;5341;47.606;7.576;2022-12-07T08:26:31;14.95;;;12.48;;
10586;SDS011;5341;47.606;7.576;2022-12-07T08:29:03;15.68;;;12.98;;
10586;SDS011;5341;47.606;7.576;2022-12-07T08:31:31;14.88;;;13.10;;
10586;SDS011;5341;47.606;7.576;2022-12-07T08:34:00;16.58;;;13.93;;
10586;SDS011;5341;47.606;7.576;2022-12-07T08:36:28;16.90;;;13.35;;
10586;SDS011;5341;47.606;7.576;2022-12-07T08:38:55;16.23;;;13.23;;
10586;SDS011;5341;47.606;7.576;2022-12-07T08:41:23;15.60;;;12.38;;
10586;SDS011;5341;47.606;7.576;2022-12-07T08:43:51;13.80;;;12.27;;
10586;SDS011;5341;47.606;7.576;2022-12-07T08:46:19;14.90;;;12.48;;
10586;SDS011;5341;47.606;7.576;2022-12-07T08:48:51;19.30;;;12.00;;
10586;SDS011;5341;47.606;7.576;2022-12-07T08:51:23;16.73;;;13.20;;
10586;SDS011;5341;47.606;7.576;2022-12-07T08:53:52;15.00;;;12.18;;
10586;SDS011;5341;47.606;7.576;2022-12-07T08:56:20;16.48;;;12.48;;
10586;SDS011;5341;47.606;7.576;2022-12-07T08:58:49;16.58;;;12.73;;
10586;SDS011;5341;47.606;7.576;2022-12-07T09:01:22;19.05;;;13.82;;
10586;SDS011;5341;47.606;7.576;2022-12-07T09:03:56;19.38;;;14.43;;
10586;SDS011;5341;47.606;7.576;2022-12-07T09:06:25;18.52;;;14.18;;
10586;SDS011;5341;47.606;7.576;2022-12-07T09:08:55;22.27;;;16.45;;
10586;SDS011;5341;47.606;7.576;2022-12-07T09:11:25;23.77;;;16.50;;
10586;SDS011;5341;47.606;7.576;2022-12-07T09:13:53;20.70;;;15.57;;
10586;SDS011;5341;47.606;7.576;2022-12-07T09:16:21;22.15;;;16.60;;
10586;SDS011;5341;47.606;7.576;2022-12-07T09:18:49;21.15;;;16.67;;
10586;SDS011;5341;47.606;7.576;2022-12-07T09:21:17;20.20;;;16.38;;
10586;SDS011;5341;47.606;7.576;2022-12-07T09:23:47;21.42;;;15.45;;
10586;SDS011;5341;47.606;7.576;2022-12-07T09:26:16;17.48;;;15.07;;
10586;SDS011;5341;47.606;7.576;2022-12-07T09:28:50;17.98;;;14.20;;
10586;SDS011;5341;47.606;7.576;2022-12-07T09:31:17;16.15;;;13.43;;
10586;SDS011;5341;47.606;7.576;2022-12-07T09:33:45;15.75;;;12.93;;
10586;SDS011;5341;47.606;7.576;2022-12-07T09:36:13;15.98;;;12.82;;
10586;SDS011;5341;47.606;7.576;2022-12-07T09:38:41;15.13;;;12.20;;
10586;SDS011;5341;47.606;7.576;2022-12-07T09:41:10;14.23;;;11.88;;
10586;SDS011;5341;47.606;7.576;2022-12-07T09:43:38;15.10;;;12.82;;
10586;SDS011;5341;47.606;7.576;2022-12-07T09:46:08;15.18;;;12.27;;
10586;SDS011;5341;47.606;7.576;2022-12-07T09:48:41;16.52;;;12.18;;
10586;SDS011;5341;47.606;7.576;2022-12-07T09:51:13;16.23;;;12.82;;
10586;SDS011;5341;47.606;7.576;2022-12-07T09:53:43;17.10;;;13.45;;
10586;SDS011;5341;47.606;7.576;2022-12-07T09:56:14;17.80;;;12.90;;
10586;SDS011;5341;47.606;7.576;2022-12-07T09:58:43;16.88;;;13.43;;
10586;SDS011;5341;47.606;7.576;2022-12-07T10:01:12;17.75;;;14.43;;
10586;SDS011;5341;47.606;7.576;2022-12-07T10:03:42;20.23;;;16.45;;
10586;SDS011;5341;47.606;7.576;2022-12-07T10:06:15;19.42;;;15.90;;
10586;SDS011;5341;47.606;7.576;2022-12-07T10:08:44;24.33;;;17.10;;
10586;SDS011;5341;47.606;7.576;2022-12-07T10:11:11;20.70;;;16.67;;
10586;SDS011;5341;47.606;7.576;2022-12-07T10:13:42;20.00;;;15.55;;
10586;SDS011;5341;47.606;7.576;2022-12-07T10:16:35;20.90;;;15.85;;
10586;SDS011;5341;47.606;7.576;2022-12-07T10:19:18;19.30;;;14.70;;
10586;SDS011;5341;47.606;7.576;2022-12-07T10:22:00;17.23;;;14.63;;
10586;SDS011;5341;47.606;7.576;2022-12-07T10:24:37;17.42;;;13.32;;
10586;SDS011;5341;47.606;7.576;2022-12-07T10:27:21;18.20;;;14.98;;
10586;SDS011;5341;47.606;7.576;2022-12-07T10:29:53;15.90;;;13.50;;
10586;SDS011;5341;47.606;7.576;2022-12-07T10:32:30;15.90;;;13.43;;
10586;SDS011;5341;47.606;7.576;2022-12-07T10:35:21;18.17;;;13.13;;
10586;SDS011;5341;47.606;7.576;2022-12-07T10:37:52;15.88;;;12.95;;
10586;SDS011;5341;47.606;7.576;2022-12-07T10:40:25;17.40;;;13.45;;
10586;SDS011;5341;47.606;7.576;2022-12-07T10:43:16;16.90;;;12.85;;
10586;SDS011;5341;47.606;7.576;2022-12-07T10:48:51;16.90;;;13.07;;
10586;SDS011;5341;47.606;7.576;2022-12-07T10:51:33;15.48;;;12.75;;
10586;SDS011;5341;47.606;7.576;2022-12-07T10:54:10;15.63;;;13.32;;
10586;SDS011;5341;47.606;7.576;2022-12-07T10:56:56;18.88;;;13.73;;
10586;SDS011;5341;47.606;7.576;2022-12-07T11:02:51;18.00;;;14.52;;
10586;SDS011;5341;47.606;7.576;2022-12-07T11:05:45;16.35;;;14.18;;
10586;SDS011;5341;47.606;7.576;2022-12-07T11:08:21;16.73;;;14.05;;
10586;SDS011;5341;47.606;7.576;2022-12-07T11:11:06;15.07;;;12.57;;
10586;SDS011;5341;47.606;7.576;2022-12-07T11:13:41;16.70;;;13.23;;
10586;SDS011;5341;47.606;7.576;2022-12-07T11:16:26;14.93;;;12.18;;
10586;SDS011;5341;47.606;7.576;2022-12-07T11:19:12;15.75;;;12.82;;
10586;SDS011;5341;47.606;7.576;2022-12-07T11:21:54;15.48;;;12.95;;
10586;SDS011;5341;47.606;7.576;2022-12-07T11:24:25;16.17;;;12.48;;
10586;SDS011;5341;47.606;7.576;2022-12-07T11:27:04;15.43;;;12.13;;
10586;SDS011;5341;47.606;7.576;2022-12-07T11:29:44;15.02;;;12.32;;
10586;SDS011;5341;47.606;7.576;2022-12-07T11:32:22;15.05;;;12.88;;
10586;SDS011;5341;47.606;7.576;2022-12-07T11:35:04;12.98;;;11.57;;
10586;SDS011;5341;47.606;7.576;2022-12-07T11:37:37;13.73;;;11.95;;
10586;SDS011;5341;47.606;7.576;2022-12-07T11:40:13;13.13;;;11.25;;
10586;SDS011;5341;47.606;7.576;2022-12-07T11:42:46;14.05;;;12.13;;
10586;SDS011;5341;47.606;7.576;2022-12-07T11:45:20;15.40;;;12.63;;
10586;SDS011;5341;47.606;7.576;2022-12-07T11:47:55;15.60;;;12.88;;
10586;SDS011;5341;47.606;7.576;2022-12-07T11:50:30;14.50;;;11.93;;
10586;SDS011;5341;47.606;7.576;2022-12-07T11:53:04;13.57;;;11.65;;
10586;SDS011;5341;47.606;7.576;2022-12-07T11:55:42;14.93;;;11.90;;
10586;SDS011;5341;47.606;7.576;2022-12-07T11:58:18;14.32;;;12.10;;
10586;SDS011;5341;47.606;7.576;2022-12-07T12:00:55;15.48;;;11.45;;
10586;SDS011;5341;47.606;7.576;2022-12-07T12:03:35;13.43;;;11.05;;
10586;SDS011;5341;47.606;7.576;2022-12-07T12:06:07;15.07;;;12.55;;
10586;SDS011;5341;47.606;7.576;2022-12-07T12:08:36;13.10;;;11.23;;
10586;SDS011;5341;47.606;7.576;2022-12-07T12:11:11;13.05;;;11.15;;
10586;SDS011;5341;47.606;7.576;2022-12-07T12:13:52;13.23;;;10.65;;
10586;SDS011;5341;47.606;7.576;2022-12-07T12:16:42;13.52;;;11.55;;
10586;SDS011;5341;47.606;7.576;2022-12-07T12:19:25;14.55;;;11.40;;
10586;SDS011;5341;47.606;7.576;2022-12-07T12:22:02;12.65;;;10.70;;
10586;SDS011;5341;47.606;7.576;2022-12-07T12:24:37;12.77;;;10.60;;
10586;SDS011;5341;47.606;7.576;2022-12-07T12:27:07;13.07;;;11.30;;
10586;SDS011;5341;47.606;7.576;2022-12-07T12:29:42;12.35;;;10.73;;
10586;SDS011;5341;47.606;7.576;2022-12-07T12:32:14;12.43;;;10.60;;
10586;SDS011;5341;47.606;7.576;2022-12-07T12:35:00;12.88;;;10.27;;
10586;SDS011;5341;47.606;7.576;2022-12-07T12:37:46;12.98;;;10.70;;
10586;SDS011;5341;47.606;7.576;2022-12-07T12:46:38;12.02;;;10.15;;
10586;SDS011;5341;47.606;7.576;2022-12-07T12:49:15;11.85;;;9.70;;
10586;SDS011;5341;47.606;7.576;2022-12-07T12:52:45;12.55;;;10.05;;
10586;SDS011;5341;47.606;7.576;2022-12-07T12:58:32;11.68;;;9.38;;
10586;SDS011;5341;47.606;7.576;2022-12-07T13:04:28;11.40;;;9.27;;
10586;SDS011;5341;47.606;7.576;2022-12-07T13:10:22;11.43;;;9.65;;
10586;SDS011;5341;47.606;7.576;2022-12-07T13:12:59;11.80;;;9.77;;
10586;SDS011;5341;47.606;7.576;2022-12-07T13:15:32;11.77;;;9.98;;
10586;SDS011;5341;47.606;7.576;2022-12-07T13:21:01;11.55;;;9.52;;
10586;SDS011;5341;47.606;7.576;2022-12-07T13:23:30;12.15;;;9.82;;
10586;SDS011;5341;47.606;7.576;2022-12-07T13:26:19;11.35;;;9.52;;
10586;SDS011;5341;47.606;7.576;2022-12-07T13:29:09;12.68;;;10.15;;
10586;SDS011;5341;47.606;7.576;2022-12-07T13:31:40;11.65;;;9.10;;
10586;SDS011;5341;47.606;7.576;2022-12-07T13:34:28;13.55;;;10.05;;
10586;SDS011;5341;47.606;7.576;2022-12-07T13:37:02;11.77;;;9.38;;
10586;SDS011;5341;47.606;7.576;2022-12-07T13:39:44;11.00;;;9.20;;
10586;SDS011;5341;47.606;7.576;2022-12-07T13:42:18;11.02;;;9.00;;
10586;SDS011;5341;47.606;7.576;2022-12-07T13:44:51;11.25;;;9.85;;
10586;SDS011;5341;47.606;7.576;2022-12-07T13:47:20;12.63;;;9.75;;
10586;SDS011;5341;47.606;7.576;2022-12-07T13:49:56;11.52;;;8.73;;
10586;SDS011;5341;47.606;7.576;2022-12-07T13:52:24;10.18;;;8.82;;
10586;SDS011;5341;47.606;7.576;2022-12-07T13:54:55;10.95;;;9.00;;
10586;SDS011;5341;47.606;7.576;2022-12-07T13:57:27;11.07;;;9.18;;
10586;SDS011;5341;47.606;7.576;2022-12-07T13:59:56;12.45;;;8.82;;
10586;SDS011;5341;47.606;7.576;2022-12-07T14:02:27;11.60;;;8.93;;
10586;SDS011;5341;47.606;7.576;2022-12-07T14:05:06;11.23;;;9.35;;
10586;SDS011;5341;47.606;7.576;2022-12-07T14:07:48;10.77;;;8.80;;
10586;SDS011;5341;47.606;7.576;2022-12-07T14:10:22;10.18;;;8.55;;
10586;SDS011;5341;47.606;7.576;2022-12-07T14:12:53;11.18;;;8.75;;
10586;SDS011;5341;47.606;7.576;2022-12-07T14:15:23;10.57;;;8.35;;
10586;SDS011;5341;47.606;7.576;2022-12-07T14:17:55;9.40;;;8.27;;
10586;SDS011;5341;47.606;7.576;2022-12-07T14:20:30;9.02;;;7.78;;
10586;SDS011;5341;47.606;7.576;2022-12-07T14:22:59;8.43;;;7.57;;
10586;SDS011;5341;47.606;7.576;2022-12-07T14:25:44;11.00;;;8.40;;
10586;SDS011;5341;47.606;7.576;2022-12-07T14:28:26;10.05;;;8.20;;
10586;SDS011;5341;47.606;7.576;2022-12-07T14:30:56;10.68;;;8.73;;
10586;SDS011;5341;47.606;7.576;2022-12-07T14:33:25;9.05;;;8.10;;
10586;SDS011;5341;47.606;7.576;2022-12-07T14:35:54;9.95;;;8.43;;
10586;SDS011;5341;47.606;7.576;2022-12-07T14:38:23;11.52;;;8.27;;
10586;SDS011;5341;47.606;7.576;2022-12-07T14:40:53;9.95;;;8.25;;
10586;SDS011;5341;47.606;7.576;2022-12-07T14:43:45;11.10;;;7.82;;
10586;SDS011;5341;47.606;7.576;2022-12-07T14:46:16;8.63;;;7.68;;
10586;SDS011;5341;47.606;7.576;2022-12-07T14:48:44;9.55;;;8.10;;
10586;SDS011;5341;47.606;7.576;2022-12-07T14:51:12;10.13;;;8.10;;
10586;SDS011;5341;47.606;7.576;2022-12-07T14:53:41;13.57;;;8.80;;
10586;SDS011;5341;47.606;7.576;2022-12-07T14:56:13;12.15;;;10.10;;
10586;SDS011;5341;47.606;7.576;2022-12-07T14:58:41;12.52;;;10.10;;
10586;SDS011;5341;47.606;7.576;2022-12-07T15:01:12;12.38;;;9.38;;
10586;SDS011;5341;47.606;7.576;2022-12-07T15:03:40;12.15;;;10.18;;
10586;SDS011;5341;47.606;7.576;2022-12-07T15:06:07;11.55;;;9.48;;
10586;SDS011;5341;47.606;7.576;2022-12-07T15:08:40;10.55;;;8.40;;
10586;SDS011;5341;47.606;7.576;2022-12-07T15:11:09;9.93;;;8.65;;
10586;SDS011;5341;47.606;7.576;2022-12-07T15:13:39;11.43;;;8.27;;
10586;SDS011;5341;47.606;7.576;2022-12-07T15:16:26;10.50;;;8.35;;
10586;SDS011;5341;47.606;7.576;2022-12-07T15:18:53;10.43;;;8.75;;
10586;SDS011;5341;47.606;7.576;2022-12-07T15:21:21;10.85;;;8.43;;
10586;SDS011;5341;47.606;7.576;2022-12-07T15:23:49;11.45;;;8.43;;
10586;SDS011;5341;47.606;7.576;2022-12-07T15:26:17;10.05;;;8.57;;
10586;SDS011;5341;47.606;7.576;2022-12-07T15:28:44;10.77;;;8.30;;
10586;SDS011;5341;47.606;7.576;2022-12-07T15:31:12;9.80;;;8.43;;
10586;SDS011;5341;47.606;7.576;2022-12-07T15:33:42;9.70;;;8.50;;
10586;SDS011;5341;47.606;7.576;2022-12-07T15:36:15;11.63;;;9.13;;
10586;SDS011;5341;47.606;7.576;2022-12-07T15:38:47;9.65;;;8.32;;
10586;SDS011;5341;47.606;7.576;2022-12-07T15:41:15;11.95;;;9.65;;